sensor_id;sensor_type;location;lat;lon;timestamp;P1;durP1;ratioP1;P2;durP2;ratioP2
5847;SDS011;8756;49.29324300;8.70599800;2022-08-25T00:01:48;11.67;;;4.03;;
5847;SDS011;8756;49.29324300;8.70599800;2022-08-25T00:04:22;14.00;;;4.53;;
5847;SDS011;8756;49.29324300;8.70599800;2022-08-25T00:06:49;18.90;;;4.27;;
5847;SDS011;8756;49.29324300;8.70599800;2022-08-25T00:09:17;13.67;;;4.40;;
5847;SDS011;8756;49.29324300;8.70599800;2022-08-25T00:11:45;12.90;;;4.27;;
5847;SDS011;8756;49.29324300;8.70599800;2022-08-25T00:14:20;13.63;;;4.30;;
5847;SDS011;8756;49.29324300;8.70599800;2022-08-25T00:16:47;13.10;;;4.00;;
5847;SDS011;8756;49.29324300;8.70599800;2022-08-25T00:19:15;11.87;;;4.03;;
5847;SDS011;8756;49.29324300;8.70599800;2022-08-25T00:21:43;12.70;;;4.10;;
5847;SDS011;8756;49.29324300;8.70599800;2022-08-25T00:24:10;13.13;;;4.23;;
5847;SDS011;8756;49.29324300;8.70599800;2022-08-25T00:26:38;13.73;;;4.00;;
5847;SDS011;8756;49.29324300;8.70599800;2022-08-25T00:29:06;14.17;;;4.20;;
5847;SDS011;8756;49.29324300;8.70599800;2022-08-25T00:31:33;16.30;;;3.80;;
5847;SDS011;8756;49.29324300;8.70599800;2022-08-25T00:33:58;13.97;;;4.23;;
5847;SDS011;8756;49.29324300;8.70599800;2022-08-25T00:36:25;14.27;;;4.03;;
5847;SDS011;8756;49.29324300;8.70599800;2022-08-25T00:38:52;11.77;;;4.43;;
5847;SDS011;8756;49.29324300;8.70599800;2022-08-25T00:41:19;13.60;;;4.30;;
5847;SDS011;8756;49.29324300;8.70599800;2022-08-25T00:44:21;12.27;;;4.50;;
5847;SDS011;8756;49.29324300;8.70599800;2022-08-25T00:46:50;14.40;;;4.23;;
5847;SDS011;8756;49.29324300;8.70599800;2022-08-25T00:49:19;12.60;;;4.33;;
5847;SDS011;8756;49.29324300;8.70599800;2022-08-25T00:52:03;12.33;;;4.80;;
5847;SDS011;8756;49.29324300;8.70599800;2022-08-25T00:54:46;12.90;;;4.03;;
5847;SDS011;8756;49.29324300;8.70599800;2022-08-25T00:57:17;15.70;;;5.17;;
5847;SDS011;8756;49.29324300;8.70599800;2022-08-25T00:59:50;12.20;;;3.67;;
5847;SDS011;8756;49.29324300;8.70599800;2022-08-25T01:02:16;16.90;;;5.07;;
5847;SDS011;8756;49.29324300;8.70599800;2022-08-25T01:04:42;14.30;;;4.43;;
5847;SDS011;8756;49.29324300;8.70599800;2022-08-25T01:07:09;13.20;;;5.10;;
5847;SDS011;8756;49.29324300;8.70599800;2022-08-25T01:09:36;12.77;;;4.47;;
5847;SDS011;8756;49.29324300;8.70599800;2022-08-25T01:12:03;13.20;;;5.00;;
5847;SDS011;8756;49.29324300;8.70599800;2022-08-25T01:14:30;13.33;;;4.90;;
5847;SDS011;8756;49.29324300;8.70599800;2022-08-25T01:16:58;13.57;;;5.07;;
5847;SDS011;8756;49.29324300;8.70599800;2022-08-25T01:19:24;12.00;;;4.80;;
5847;SDS011;8756;49.29324300;8.70599800;2022-08-25T01:21:52;14.10;;;5.37;;
5847;SDS011;8756;49.29324300;8.70599800;2022-08-25T01:24:28;13.83;;;4.90;;
5847;SDS011;8756;49.29324300;8.70599800;2022-08-25T01:27:01;12.60;;;5.13;;
5847;SDS011;8756;49.29324300;8.70599800;2022-08-25T01:29:27;13.80;;;5.20;;
5847;SDS011;8756;49.29324300;8.70599800;2022-08-25T01:31:58;14.27;;;5.60;;
5847;SDS011;8756;49.29324300;8.70599800;2022-08-25T01:34:26;12.50;;;4.50;;
5847;SDS011;8756;49.29324300;8.70599800;2022-08-25T01:36:54;18.53;;;5.93;;
5847;SDS011;8756;49.29324300;8.70599800;2022-08-25T01:39:22;14.87;;;5.97;;
5847;SDS011;8756;49.29324300;8.70599800;2022-08-25T01:42:02;13.43;;;5.47;;
5847;SDS011;8756;49.29324300;8.70599800;2022-08-25T01:44:42;16.23;;;5.00;;
5847;SDS011;8756;49.29324300;8.70599800;2022-08-25T01:47:09;14.40;;;5.70;;
5847;SDS011;8756;49.29324300;8.70599800;2022-08-25T01:49:35;13.10;;;5.00;;
5847;SDS011;8756;49.29324300;8.70599800;2022-08-25T01:52:06;15.47;;;5.23;;
5847;SDS011;8756;49.29324300;8.70599800;2022-08-25T01:54:39;15.53;;;5.23;;
5847;SDS011;8756;49.29324300;8.70599800;2022-08-25T01:57:04;14.73;;;6.10;;
5847;SDS011;8756;49.29324300;8.70599800;2022-08-25T01:59:30;14.40;;;5.50;;
5847;SDS011;8756;49.29324300;8.70599800;2022-08-25T02:01:56;13.10;;;4.87;;
5847;SDS011;8756;49.29324300;8.70599800;2022-08-25T02:04:21;13.73;;;5.40;;
5847;SDS011;8756;49.29324300;8.70599800;2022-08-25T02:06:47;13.17;;;5.10;;
5847;SDS011;8756;49.29324300;8.70599800;2022-08-25T02:09:14;15.53;;;5.53;;
5847;SDS011;8756;49.29324300;8.70599800;2022-08-25T02:11:43;16.23;;;5.33;;
5847;SDS011;8756;49.29324300;8.70599800;2022-08-25T02:14:11;13.30;;;5.73;;
5847;SDS011;8756;49.29324300;8.70599800;2022-08-25T02:16:38;13.63;;;5.53;;
5847;SDS011;8756;49.29324300;8.70599800;2022-08-25T02:19:06;15.30;;;6.03;;
5847;SDS011;8756;49.29324300;8.70599800;2022-08-25T02:21:33;13.60;;;5.97;;
5847;SDS011;8756;49.29324300;8.70599800;2022-08-25T02:23:59;16.67;;;6.17;;
5847;SDS011;8756;49.29324300;8.70599800;2022-08-25T02:26:26;15.93;;;6.43;;
5847;SDS011;8756;49.29324300;8.70599800;2022-08-25T02:28:52;16.37;;;6.03;;
5847;SDS011;8756;49.29324300;8.70599800;2022-08-25T02:31:19;16.70;;;6.43;;
5847;SDS011;8756;49.29324300;8.70599800;2022-08-25T02:33:46;14.93;;;5.80;;
5847;SDS011;8756;49.29324300;8.70599800;2022-08-25T02:36:12;15.97;;;5.97;;
5847;SDS011;8756;49.29324300;8.70599800;2022-08-25T02:38:39;15.90;;;6.23;;
5847;SDS011;8756;49.29324300;8.70599800;2022-08-25T02:41:10;15.30;;;6.17;;
5847;SDS011;8756;49.29324300;8.70599800;2022-08-25T02:43:38;14.90;;;6.27;;
5847;SDS011;8756;49.29324300;8.70599800;2022-08-25T02:46:06;15.33;;;6.10;;
5847;SDS011;8756;49.29324300;8.70599800;2022-08-25T02:48:32;16.13;;;5.80;;
5847;SDS011;8756;49.29324300;8.70599800;2022-08-25T02:50:58;16.80;;;6.43;;
5847;SDS011;8756;49.29324300;8.70599800;2022-08-25T02:53:26;15.50;;;6.30;;
5847;SDS011;8756;49.29324300;8.70599800;2022-08-25T02:55:53;15.43;;;6.67;;
5847;SDS011;8756;49.29324300;8.70599800;2022-08-25T02:58:19;15.27;;;6.43;;
5847;SDS011;8756;49.29324300;8.70599800;2022-08-25T03:00:45;14.53;;;6.10;;
5847;SDS011;8756;49.29324300;8.70599800;2022-08-25T03:03:12;18.03;;;7.10;;
5847;SDS011;8756;49.29324300;8.70599800;2022-08-25T03:05:38;15.57;;;6.77;;
5847;SDS011;8756;49.29324300;8.70599800;2022-08-25T03:08:04;18.00;;;6.23;;
5847;SDS011;8756;49.29324300;8.70599800;2022-08-25T03:10:31;15.07;;;7.03;;
5847;SDS011;8756;49.29324300;8.70599800;2022-08-25T03:12:57;14.70;;;6.13;;
5847;SDS011;8756;49.29324300;8.70599800;2022-08-25T03:15:23;18.83;;;7.30;;
5847;SDS011;8756;49.29324300;8.70599800;2022-08-25T03:17:52;15.43;;;7.27;;
5847;SDS011;8756;49.29324300;8.70599800;2022-08-25T03:20:19;17.30;;;6.03;;
5847;SDS011;8756;49.29324300;8.70599800;2022-08-25T03:22:46;15.77;;;6.97;;
5847;SDS011;8756;49.29324300;8.70599800;2022-08-25T03:25:13;17.00;;;6.80;;
5847;SDS011;8756;49.29324300;8.70599800;2022-08-25T03:27:57;15.60;;;6.90;;
5847;SDS011;8756;49.29324300;8.70599800;2022-08-25T03:30:23;17.00;;;7.27;;
5847;SDS011;8756;49.29324300;8.70599800;2022-08-25T03:32:50;16.77;;;6.57;;
5847;SDS011;8756;49.29324300;8.70599800;2022-08-25T03:35:16;16.50;;;7.03;;
5847;SDS011;8756;49.29324300;8.70599800;2022-08-25T03:37:42;14.23;;;6.53;;
5847;SDS011;8756;49.29324300;8.70599800;2022-08-25T03:40:09;17.23;;;7.10;;
5847;SDS011;8756;49.29324300;8.70599800;2022-08-25T03:42:41;14.87;;;6.63;;
5847;SDS011;8756;49.29324300;8.70599800;2022-08-25T03:45:08;16.60;;;7.70;;
5847;SDS011;8756;49.29324300;8.70599800;2022-08-25T03:47:37;17.00;;;7.40;;
5847;SDS011;8756;49.29324300;8.70599800;2022-08-25T03:50:04;19.90;;;8.27;;
5847;SDS011;8756;49.29324300;8.70599800;2022-08-25T03:52:31;15.47;;;6.80;;
5847;SDS011;8756;49.29324300;8.70599800;2022-08-25T03:54:56;19.20;;;7.17;;
5847;SDS011;8756;49.29324300;8.70599800;2022-08-25T03:57:22;15.50;;;7.03;;
5847;SDS011;8756;49.29324300;8.70599800;2022-08-25T03:59:48;18.43;;;8.00;;
5847;SDS011;8756;49.29324300;8.70599800;2022-08-25T04:02:13;16.33;;;7.30;;
5847;SDS011;8756;49.29324300;8.70599800;2022-08-25T04:04:39;16.40;;;7.60;;
5847;SDS011;8756;49.29324300;8.70599800;2022-08-25T04:07:04;15.50;;;7.27;;
5847;SDS011;8756;49.29324300;8.70599800;2022-08-25T04:09:30;16.03;;;7.07;;
5847;SDS011;8756;49.29324300;8.70599800;2022-08-25T04:11:56;18.03;;;7.27;;
5847;SDS011;8756;49.29324300;8.70599800;2022-08-25T04:14:22;16.40;;;7.87;;
5847;SDS011;8756;49.29324300;8.70599800;2022-08-25T04:16:48;17.27;;;8.40;;
5847;SDS011;8756;49.29324300;8.70599800;2022-08-25T04:19:14;16.40;;;7.70;;
5847;SDS011;8756;49.29324300;8.70599800;2022-08-25T04:21:40;15.80;;;7.60;;
5847;SDS011;8756;49.29324300;8.70599800;2022-08-25T04:24:06;18.83;;;8.00;;
5847;SDS011;8756;49.29324300;8.70599800;2022-08-25T04:26:35;21.07;;;7.23;;
5847;SDS011;8756;49.29324300;8.70599800;2022-08-25T04:29:05;16.17;;;7.90;;
5847;SDS011;8756;49.29324300;8.70599800;2022-08-25T04:31:34;16.37;;;7.83;;
5847;SDS011;8756;49.29324300;8.70599800;2022-08-25T04:34:03;18.10;;;8.47;;
5847;SDS011;8756;49.29324300;8.70599800;2022-08-25T04:36:30;15.77;;;7.43;;
5847;SDS011;8756;49.29324300;8.70599800;2022-08-25T04:38:56;17.50;;;8.10;;
5847;SDS011;8756;49.29324300;8.70599800;2022-08-25T04:41:22;19.60;;;7.70;;
5847;SDS011;8756;49.29324300;8.70599800;2022-08-25T04:43:49;17.20;;;7.60;;
5847;SDS011;8756;49.29324300;8.70599800;2022-08-25T04:46:17;18.10;;;8.87;;
5847;SDS011;8756;49.29324300;8.70599800;2022-08-25T04:48:45;16.47;;;8.00;;
5847;SDS011;8756;49.29324300;8.70599800;2022-08-25T04:51:12;16.60;;;8.30;;
5847;SDS011;8756;49.29324300;8.70599800;2022-08-25T04:53:41;17.83;;;7.77;;
5847;SDS011;8756;49.29324300;8.70599800;2022-08-25T04:56:08;16.80;;;7.97;;
5847;SDS011;8756;49.29324300;8.70599800;2022-08-25T04:58:36;17.37;;;8.67;;
5847;SDS011;8756;49.29324300;8.70599800;2022-08-25T05:01:03;19.20;;;7.87;;
5847;SDS011;8756;49.29324300;8.70599800;2022-08-25T05:03:34;20.57;;;9.33;;
5847;SDS011;8756;49.29324300;8.70599800;2022-08-25T05:06:00;17.63;;;8.17;;
5847;SDS011;8756;49.29324300;8.70599800;2022-08-25T05:08:26;18.30;;;8.13;;
5847;SDS011;8756;49.29324300;8.70599800;2022-08-25T05:10:52;17.03;;;8.63;;
5847;SDS011;8756;49.29324300;8.70599800;2022-08-25T05:13:20;17.50;;;8.10;;
5847;SDS011;8756;49.29324300;8.70599800;2022-08-25T05:15:53;20.57;;;8.83;;
5847;SDS011;8756;49.29324300;8.70599800;2022-08-25T05:18:22;17.60;;;8.67;;
5847;SDS011;8756;49.29324300;8.70599800;2022-08-25T05:20:49;18.70;;;8.30;;
5847;SDS011;8756;49.29324300;8.70599800;2022-08-25T05:23:17;16.70;;;7.73;;
5847;SDS011;8756;49.29324300;8.70599800;2022-08-25T05:25:43;16.10;;;7.87;;
5847;SDS011;8756;49.29324300;8.70599800;2022-08-25T05:28:09;18.30;;;8.37;;
5847;SDS011;8756;49.29324300;8.70599800;2022-08-25T05:30:38;18.63;;;8.83;;
5847;SDS011;8756;49.29324300;8.70599800;2022-08-25T05:33:05;16.27;;;7.63;;
5847;SDS011;8756;49.29324300;8.70599800;2022-08-25T05:35:30;21.37;;;9.47;;
5847;SDS011;8756;49.29324300;8.70599800;2022-08-25T05:37:56;17.60;;;8.03;;
5847;SDS011;8756;49.29324300;8.70599800;2022-08-25T05:40:22;22.30;;;8.93;;
5847;SDS011;8756;49.29324300;8.70599800;2022-08-25T05:42:48;17.10;;;8.20;;
5847;SDS011;8756;49.29324300;8.70599800;2022-08-25T05:45:14;16.47;;;8.63;;
5847;SDS011;8756;49.29324300;8.70599800;2022-08-25T05:47:40;17.57;;;7.80;;
5847;SDS011;8756;49.29324300;8.70599800;2022-08-25T05:50:05;23.10;;;9.30;;
5847;SDS011;8756;49.29324300;8.70599800;2022-08-25T05:52:33;19.57;;;9.47;;
5847;SDS011;8756;49.29324300;8.70599800;2022-08-25T05:54:58;19.30;;;9.13;;
5847;SDS011;8756;49.29324300;8.70599800;2022-08-25T05:57:24;17.97;;;7.87;;
5847;SDS011;8756;49.29324300;8.70599800;2022-08-25T05:59:50;17.63;;;8.33;;
5847;SDS011;8756;49.29324300;8.70599800;2022-08-25T06:02:15;21.87;;;8.37;;
5847;SDS011;8756;49.29324300;8.70599800;2022-08-25T06:05:00;18.47;;;8.93;;
5847;SDS011;8756;49.29324300;8.70599800;2022-08-25T06:07:25;22.23;;;9.20;;
5847;SDS011;8756;49.29324300;8.70599800;2022-08-25T06:09:51;20.10;;;9.30;;
5847;SDS011;8756;49.29324300;8.70599800;2022-08-25T06:12:16;28.10;;;9.33;;
5847;SDS011;8756;49.29324300;8.70599800;2022-08-25T06:14:43;21.63;;;8.83;;
5847;SDS011;8756;49.29324300;8.70599800;2022-08-25T06:17:09;23.50;;;8.93;;
5847;SDS011;8756;49.29324300;8.70599800;2022-08-25T06:19:35;19.40;;;8.63;;
5847;SDS011;8756;49.29324300;8.70599800;2022-08-25T06:22:01;18.97;;;8.73;;
5847;SDS011;8756;49.29324300;8.70599800;2022-08-25T06:24:27;21.70;;;10.00;;
5847;SDS011;8756;49.29324300;8.70599800;2022-08-25T06:26:53;21.13;;;8.53;;
5847;SDS011;8756;49.29324300;8.70599800;2022-08-25T06:29:20;20.60;;;8.47;;
5847;SDS011;8756;49.29324300;8.70599800;2022-08-25T06:31:46;23.13;;;8.33;;
5847;SDS011;8756;49.29324300;8.70599800;2022-08-25T06:34:13;19.30;;;9.40;;
5847;SDS011;8756;49.29324300;8.70599800;2022-08-25T06:36:39;17.47;;;8.23;;
5847;SDS011;8756;49.29324300;8.70599800;2022-08-25T06:39:05;18.37;;;8.40;;
5847;SDS011;8756;49.29324300;8.70599800;2022-08-25T06:41:31;22.43;;;8.80;;
5847;SDS011;8756;49.29324300;8.70599800;2022-08-25T06:43:57;20.50;;;8.60;;
5847;SDS011;8756;49.29324300;8.70599800;2022-08-25T06:46:24;17.83;;;8.40;;
5847;SDS011;8756;49.29324300;8.70599800;2022-08-25T06:48:54;21.07;;;9.17;;
5847;SDS011;8756;49.29324300;8.70599800;2022-08-25T06:51:21;17.17;;;8.50;;
5847;SDS011;8756;49.29324300;8.70599800;2022-08-25T06:53:49;19.83;;;8.57;;
5847;SDS011;8756;49.29324300;8.70599800;2022-08-25T06:56:15;21.33;;;8.33;;
5847;SDS011;8756;49.29324300;8.70599800;2022-08-25T06:58:42;16.80;;;7.40;;
5847;SDS011;8756;49.29324300;8.70599800;2022-08-25T07:01:08;17.90;;;8.93;;
5847;SDS011;8756;49.29324300;8.70599800;2022-08-25T07:03:36;19.37;;;8.50;;
5847;SDS011;8756;49.29324300;8.70599800;2022-08-25T07:06:02;18.80;;;9.00;;
5847;SDS011;8756;49.29324300;8.70599800;2022-08-25T07:08:28;21.13;;;9.23;;
5847;SDS011;8756;49.29324300;8.70599800;2022-08-25T07:10:53;39.03;;;8.73;;
5847;SDS011;8756;49.29324300;8.70599800;2022-08-25T07:13:19;18.03;;;8.17;;
5847;SDS011;8756;49.29324300;8.70599800;2022-08-25T07:15:45;21.10;;;8.40;;
5847;SDS011;8756;49.29324300;8.70599800;2022-08-25T07:18:10;18.00;;;8.27;;
5847;SDS011;8756;49.29324300;8.70599800;2022-08-25T07:20:37;18.53;;;8.70;;
5847;SDS011;8756;49.29324300;8.70599800;2022-08-25T07:23:04;18.10;;;9.17;;
5847;SDS011;8756;49.29324300;8.70599800;2022-08-25T07:25:30;18.20;;;8.87;;
5847;SDS011;8756;49.29324300;8.70599800;2022-08-25T07:27:57;20.50;;;8.80;;
5847;SDS011;8756;49.29324300;8.70599800;2022-08-25T07:30:22;18.00;;;8.80;;
5847;SDS011;8756;49.29324300;8.70599800;2022-08-25T07:32:48;16.37;;;7.90;;
5847;SDS011;8756;49.29324300;8.70599800;2022-08-25T07:35:14;19.10;;;8.40;;
5847;SDS011;8756;49.29324300;8.70599800;2022-08-25T07:37:40;18.53;;;8.57;;
5847;SDS011;8756;49.29324300;8.70599800;2022-08-25T07:40:11;16.10;;;8.00;;
5847;SDS011;8756;49.29324300;8.70599800;2022-08-25T07:42:45;20.37;;;8.97;;
5847;SDS011;8756;49.29324300;8.70599800;2022-08-25T07:45:12;17.77;;;7.63;;
5847;SDS011;8756;49.29324300;8.70599800;2022-08-25T07:47:39;17.30;;;8.00;;
5847;SDS011;8756;49.29324300;8.70599800;2022-08-25T07:50:06;17.63;;;8.63;;
5847;SDS011;8756;49.29324300;8.70599800;2022-08-25T07:52:33;16.87;;;8.60;;
5847;SDS011;8756;49.29324300;8.70599800;2022-08-25T07:54:59;16.23;;;8.20;;
5847;SDS011;8756;49.29324300;8.70599800;2022-08-25T07:57:26;15.93;;;7.83;;
5847;SDS011;8756;49.29324300;8.70599800;2022-08-25T07:59:53;17.97;;;8.40;;
5847;SDS011;8756;49.29324300;8.70599800;2022-08-25T08:02:19;16.57;;;8.13;;
5847;SDS011;8756;49.29324300;8.70599800;2022-08-25T08:04:46;19.17;;;8.57;;
5847;SDS011;8756;49.29324300;8.70599800;2022-08-25T08:07:14;20.53;;;8.73;;
5847;SDS011;8756;49.29324300;8.70599800;2022-08-25T08:09:41;16.57;;;6.83;;
5847;SDS011;8756;49.29324300;8.70599800;2022-08-25T08:12:07;17.70;;;8.07;;
5847;SDS011;8756;49.29324300;8.70599800;2022-08-25T08:14:33;15.70;;;8.23;;
5847;SDS011;8756;49.29324300;8.70599800;2022-08-25T08:16:59;17.93;;;8.03;;
5847;SDS011;8756;49.29324300;8.70599800;2022-08-25T08:19:28;18.00;;;9.00;;
5847;SDS011;8756;49.29324300;8.70599800;2022-08-25T08:21:54;17.17;;;9.27;;
5847;SDS011;8756;49.29324300;8.70599800;2022-08-25T08:24:20;15.97;;;7.73;;
5847;SDS011;8756;49.29324300;8.70599800;2022-08-25T08:26:46;15.50;;;7.00;;
5847;SDS011;8756;49.29324300;8.70599800;2022-08-25T08:29:12;18.93;;;8.27;;
5847;SDS011;8756;49.29324300;8.70599800;2022-08-25T08:31:38;15.07;;;7.20;;
5847;SDS011;8756;49.29324300;8.70599800;2022-08-25T08:34:04;15.83;;;7.30;;
5847;SDS011;8756;49.29324300;8.70599800;2022-08-25T08:36:30;15.70;;;7.07;;
5847;SDS011;8756;49.29324300;8.70599800;2022-08-25T08:38:55;16.80;;;7.57;;
5847;SDS011;8756;49.29324300;8.70599800;2022-08-25T08:55:48;17.50;;;7.60;;
5847;SDS011;8756;49.29324300;8.70599800;2022-08-25T08:58:22;17.17;;;6.93;;
5847;SDS011;8756;49.29324300;8.70599800;2022-08-25T09:00:51;15.50;;;6.97;;
5847;SDS011;8756;49.29324300;8.70599800;2022-08-25T09:06:12;16.77;;;7.47;;
5847;SDS011;8756;49.29324300;8.70599800;2022-08-25T09:08:44;13.90;;;5.83;;
5847;SDS011;8756;49.29324300;8.70599800;2022-08-25T09:11:17;14.30;;;5.90;;
5847;SDS011;8756;49.29324300;8.70599800;2022-08-25T09:23:02;13.30;;;5.63;;
5847;SDS011;8756;49.29324300;8.70599800;2022-08-25T09:31:02;13.50;;;4.93;;
5847;SDS011;8756;49.29324300;8.70599800;2022-08-25T09:33:40;13.00;;;5.57;;
5847;SDS011;8756;49.29324300;8.70599800;2022-08-25T09:36:13;13.87;;;5.77;;
5847;SDS011;8756;49.29324300;8.70599800;2022-08-25T09:38:39;13.20;;;5.53;;
5847;SDS011;8756;49.29324300;8.70599800;2022-08-25T09:41:05;14.70;;;5.90;;
5847;SDS011;8756;49.29324300;8.70599800;2022-08-25T09:43:32;12.87;;;5.20;;
5847;SDS011;8756;49.29324300;8.70599800;2022-08-25T09:46:12;14.80;;;5.27;;
5847;SDS011;8756;49.29324300;8.70599800;2022-08-25T09:48:44;15.70;;;5.70;;
5847;SDS011;8756;49.29324300;8.70599800;2022-08-25T09:53:41;13.90;;;5.53;;
5847;SDS011;8756;49.29324300;8.70599800;2022-08-25T09:56:15;15.63;;;5.60;;
5847;SDS011;8756;49.29324300;8.70599800;2022-08-25T09:58:45;16.47;;;5.60;;
5847;SDS011;8756;49.29324300;8.70599800;2022-08-25T10:01:12;14.20;;;5.63;;
5847;SDS011;8756;49.29324300;8.70599800;2022-08-25T10:06:20;13.60;;;5.50;;
5847;SDS011;8756;49.29324300;8.70599800;2022-08-25T10:11:13;12.73;;;5.10;;
5847;SDS011;8756;49.29324300;8.70599800;2022-08-25T10:14:03;13.27;;;5.27;;
5847;SDS011;8756;49.29324300;8.70599800;2022-08-25T10:16:30;13.47;;;5.10;;
5847;SDS011;8756;49.29324300;8.70599800;2022-08-25T10:19:10;14.70;;;5.90;;
5847;SDS011;8756;49.29324300;8.70599800;2022-08-25T10:21:38;15.57;;;5.07;;
5847;SDS011;8756;49.29324300;8.70599800;2022-08-25T10:24:07;14.47;;;5.87;;
5847;SDS011;8756;49.29324300;8.70599800;2022-08-25T10:35:11;13.23;;;5.23;;
5847;SDS011;8756;49.29324300;8.70599800;2022-08-25T10:38:06;14.57;;;5.33;;
5847;SDS011;8756;49.29324300;8.70599800;2022-08-25T10:46:14;13.83;;;4.70;;
5847;SDS011;8756;49.29324300;8.70599800;2022-08-25T10:49:03;12.67;;;4.73;;
5847;SDS011;8756;49.29324300;8.70599800;2022-08-25T10:51:59;13.37;;;5.23;;
5847;SDS011;8756;49.29324300;8.70599800;2022-08-25T10:57:33;16.60;;;4.70;;
5847;SDS011;8756;49.29324300;8.70599800;2022-08-25T11:00:19;15.73;;;5.40;;
5847;SDS011;8756;49.29324300;8.70599800;2022-08-25T11:05:46;13.80;;;5.20;;
5847;SDS011;8756;49.29324300;8.70599800;2022-08-25T11:08:16;13.50;;;5.23;;
5847;SDS011;8756;49.29324300;8.70599800;2022-08-25T11:11:11;13.40;;;5.33;;
5847;SDS011;8756;49.29324300;8.70599800;2022-08-25T11:16:39;12.33;;;4.57;;
5847;SDS011;8756;49.29324300;8.70599800;2022-08-25T11:19:19;12.27;;;4.53;;
5847;SDS011;8756;49.29324300;8.70599800;2022-08-25T11:21:52;13.17;;;5.10;;
5847;SDS011;8756;49.29324300;8.70599800;2022-08-25T11:27:11;13.83;;;5.63;;
5847;SDS011;8756;49.29324300;8.70599800;2022-08-25T11:29:43;13.67;;;5.50;;
5847;SDS011;8756;49.29324300;8.70599800;2022-08-25T11:32:17;13.00;;;5.00;;
5847;SDS011;8756;49.29324300;8.70599800;2022-08-25T11:34:44;13.83;;;5.17;;
5847;SDS011;8756;49.29324300;8.70599800;2022-08-25T11:37:18;15.00;;;5.10;;
5847;SDS011;8756;49.29324300;8.70599800;2022-08-25T11:40:05;14.00;;;5.10;;
5847;SDS011;8756;49.29324300;8.70599800;2022-08-25T11:42:48;14.30;;;5.17;;
5847;SDS011;8756;49.29324300;8.70599800;2022-08-25T11:57:02;12.63;;;4.97;;
5847;SDS011;8756;49.29324300;8.70599800;2022-08-25T12:05:04;12.70;;;4.53;;
5847;SDS011;8756;49.29324300;8.70599800;2022-08-25T12:08:05;12.20;;;5.30;;
5847;SDS011;8756;49.29324300;8.70599800;2022-08-25T12:13:37;14.10;;;5.20;;
5847;SDS011;8756;49.29324300;8.70599800;2022-08-25T12:16:31;13.93;;;5.07;;
5847;SDS011;8756;49.29324300;8.70599800;2022-08-25T12:19:21;12.87;;;4.97;;
5847;SDS011;8756;49.29324300;8.70599800;2022-08-25T12:21:58;13.03;;;4.73;;
5847;SDS011;8756;49.29324300;8.70599800;2022-08-25T12:27:19;11.83;;;4.70;;
5847;SDS011;8756;49.29324300;8.70599800;2022-08-25T12:29:54;13.77;;;4.60;;
5847;SDS011;8756;49.29324300;8.70599800;2022-08-25T12:32:36;13.70;;;5.00;;
5847;SDS011;8756;49.29324300;8.70599800;2022-08-25T12:35:22;13.77;;;5.30;;
5847;SDS011;8756;49.29324300;8.70599800;2022-08-25T12:37:55;14.10;;;4.90;;
5847;SDS011;8756;49.29324300;8.70599800;2022-08-25T12:40:28;13.23;;;4.53;;
5847;SDS011;8756;49.29324300;8.70599800;2022-08-25T12:43:12;12.60;;;4.70;;
5847;SDS011;8756;49.29324300;8.70599800;2022-08-25T12:45:52;13.93;;;5.07;;
5847;SDS011;8756;49.29324300;8.70599800;2022-08-25T12:53:48;12.57;;;4.70;;
5847;SDS011;8756;49.29324300;8.70599800;2022-08-25T12:56:27;15.07;;;4.53;;
5847;SDS011;8756;49.29324300;8.70599800;2022-08-25T13:10:02;14.27;;;4.83;;
5847;SDS011;8756;49.29324300;8.70599800;2022-08-25T13:12:36;12.53;;;4.53;;
5847;SDS011;8756;49.29324300;8.70599800;2022-08-25T13:15:05;16.07;;;4.70;;
5847;SDS011;8756;49.29324300;8.70599800;2022-08-25T13:17:37;16.30;;;5.03;;
5847;SDS011;8756;49.29324300;8.70599800;2022-08-25T13:20:13;13.13;;;4.60;;
5847;SDS011;8756;49.29324300;8.70599800;2022-08-25T13:22:46;15.40;;;4.50;;
5847;SDS011;8756;49.29324300;8.70599800;2022-08-25T13:25:18;12.70;;;4.80;;
5847;SDS011;8756;49.29324300;8.70599800;2022-08-25T13:27:47;13.23;;;4.20;;
5847;SDS011;8756;49.29324300;8.70599800;2022-08-25T13:30:27;15.57;;;4.70;;
5847;SDS011;8756;49.29324300;8.70599800;2022-08-25T13:32:55;11.93;;;4.50;;
5847;SDS011;8756;49.29324300;8.70599800;2022-08-25T13:35:28;14.57;;;4.80;;
5847;SDS011;8756;49.29324300;8.70599800;2022-08-25T13:38:15;12.67;;;4.53;;
5847;SDS011;8756;49.29324300;8.70599800;2022-08-25T13:40:42;12.43;;;4.30;;
5847;SDS011;8756;49.29324300;8.70599800;2022-08-25T13:43:09;13.30;;;4.57;;
5847;SDS011;8756;49.29324300;8.70599800;2022-08-25T13:45:46;12.40;;;4.67;;
5847;SDS011;8756;49.29324300;8.70599800;2022-08-25T13:48:13;11.77;;;4.50;;
5847;SDS011;8756;49.29324300;8.70599800;2022-08-25T13:51:02;13.73;;;4.23;;
5847;SDS011;8756;49.29324300;8.70599800;2022-08-25T13:53:51;12.20;;;4.43;;
5847;SDS011;8756;49.29324300;8.70599800;2022-08-25T13:56:23;14.30;;;4.70;;
5847;SDS011;8756;49.29324300;8.70599800;2022-08-25T13:58:51;15.40;;;4.63;;
5847;SDS011;8756;49.29324300;8.70599800;2022-08-25T14:01:19;12.20;;;4.50;;
5847;SDS011;8756;49.29324300;8.70599800;2022-08-25T14:03:48;13.00;;;4.63;;
5847;SDS011;8756;49.29324300;8.70599800;2022-08-25T14:08:41;13.33;;;4.20;;
5847;SDS011;8756;49.29324300;8.70599800;2022-08-25T14:11:13;15.03;;;4.20;;
5847;SDS011;8756;49.29324300;8.70599800;2022-08-25T14:14:06;14.10;;;4.67;;
5847;SDS011;8756;49.29324300;8.70599800;2022-08-25T14:17:19;12.03;;;4.10;;
5847;SDS011;8756;49.29324300;8.70599800;2022-08-25T14:19:25;11.63;;;3.70;;
5847;SDS011;8756;49.29324300;8.70599800;2022-08-25T14:21:50;13.77;;;4.40;;
5847;SDS011;8756;49.29324300;8.70599800;2022-08-25T14:24:17;11.57;;;3.90;;
5847;SDS011;8756;49.29324300;8.70599800;2022-08-25T14:26:45;13.13;;;3.60;;
5847;SDS011;8756;49.29324300;8.70599800;2022-08-25T14:29:12;15.07;;;4.40;;
5847;SDS011;8756;49.29324300;8.70599800;2022-08-25T14:31:38;12.37;;;4.00;;
5847;SDS011;8756;49.29324300;8.70599800;2022-08-25T14:34:17;11.77;;;3.70;;
5847;SDS011;8756;49.29324300;8.70599800;2022-08-25T14:36:46;12.70;;;3.30;;
5847;SDS011;8756;49.29324300;8.70599800;2022-08-25T14:39:13;12.20;;;4.10;;
5847;SDS011;8756;49.29324300;8.70599800;2022-08-25T14:41:40;11.90;;;3.90;;
5847;SDS011;8756;49.29324300;8.70599800;2022-08-25T14:44:07;11.97;;;4.10;;
5847;SDS011;8756;49.29324300;8.70599800;2022-08-25T14:46:35;14.33;;;4.30;;
5847;SDS011;8756;49.29324300;8.70599800;2022-08-25T14:49:09;11.03;;;3.50;;
5847;SDS011;8756;49.29324300;8.70599800;2022-08-25T14:51:37;11.53;;;3.97;;
5847;SDS011;8756;49.29324300;8.70599800;2022-08-25T14:54:06;12.70;;;3.90;;
5847;SDS011;8756;49.29324300;8.70599800;2022-08-25T14:56:35;11.53;;;3.70;;
5847;SDS011;8756;49.29324300;8.70599800;2022-08-25T14:59:01;12.80;;;4.30;;
5847;SDS011;8756;49.29324300;8.70599800;2022-08-25T15:01:27;12.10;;;3.40;;